Valle Di Andalusia — IBTJ — position and weather

sailwx.info

Track history (hours):
 
Tides and Currents Weather Stations Pressure Air Temp Water Temp Dewpoint Dewpoint Depression Visibility Wind Speed Wind Dir Waves Ship Positions

Valle Di Andalusia

Last reported at 2014-Sep-01 05:27 UTC. Time now 2014-Sep-02 19:10 UTC.
Position N 41°07' E 002°30'.

Length 176 m; draft 9.5 m.

Type: Ship (hazmat cat A). MMSI: 247046200.

Date/timePositionNaut miles runAvg speedWind from/ knotsBaromVisibWave heightAir tempDewpointWater temp
2014-Sep-01 05:27N 41°07' E 002°30'1713.8
2014-Sep-01 04:12N 40°58' E 002°49'30811.1
2014-Aug-31 00:33N 38°45' E 008°50'1313.1
2014-Aug-30 23:33N 38°53' E 009°03'1211.4
2014-Aug-30 22:32N 39°04' E 009°04'0 0.1
2014-Aug-30 21:33N 39°04' E 009°04'0 0.1
2014-Aug-30 20:33N 39°04' E 009°04'2 1.5
2014-Aug-30 19:31N 39°05' E 009°02'0 0.0
2014-Aug-30 18:31N 39°05' E 009°02'0 0.0
2014-Aug-30 17:31N 39°05' E 009°02'0 0.0
2014-Aug-30 16:33N 39°05' E 009°02'0 0.0
2014-Aug-30 15:33N 39°05' E 009°02'0 0.0
2014-Aug-30 14:32N 39°05' E 009°02'0 0.0
2014-Aug-30 13:32N 39°05' E 009°02'0 0.0
2014-Aug-30 12:31N 39°05' E 009°02'0 0.0
2014-Aug-30 11:28N 39°05' E 009°02'0 0.0
2014-Aug-30 10:34N 39°05' E 009°02'0 0.0
2014-Aug-30 09:33N 39°05' E 009°02'0 0.0
2014-Aug-30 08:33N 39°05' E 009°02'0 0.0
2014-Aug-30 07:33N 39°05' E 009°02'0 0.0
2014-Aug-30 06:32N 39°05' E 009°02'0 0.0
2014-Aug-30 05:32N 39°05' E 009°02'0 0.0
2014-Aug-30 04:31N 39°05' E 009°02'0 0.0
2014-Aug-30 03:31N 39°05' E 009°02'0 0.0
2014-Aug-30 02:33N 39°05' E 009°02'0 0.0
2014-Aug-30 01:33N 39°05' E 009°02'0 0.0
2014-Aug-30 00:33N 39°05' E 009°02'0 0.0
2014-Aug-29 23:32N 39°05' E 009°02'0 0.0
2014-Aug-29 22:32N 39°05' E 009°02'0 0.0
2014-Aug-29 21:31N 39°05' E 009°02'0 0.0
2014-Aug-29 20:32N 39°05' E 009°02'1 1.0
2014-Aug-29 19:33N 39°05' E 009°03'0 0.0
2014-Aug-29 18:32N 39°05' E 009°03'0 0.0
2014-Aug-29 17:32N 39°05' E 009°03'0 0.0
2014-Aug-29 16:31N 39°05' E 009°03'0 0.0
2014-Aug-29 15:31N 39°05' E 009°03'0 0.0
2014-Aug-29 14:33N 39°05' E 009°03'0 0.0
2014-Aug-29 13:30N 39°05' E 009°03'0 0.2
2014-Aug-29 12:33N 39°04' E 009°03'1111.1
2014-Aug-29 11:33N 38°58' E 009°15'1413.6
2014-Aug-29 10:33N 38°50' E 009°29'20513.6
2014-Aug-28 19:32N 37°10' E 013°16'2613.3
2014-Aug-28 17:34N 36°59' E 013°46'1413.9
2014-Aug-28 16:33N 36°52' E 014°01'1413.9
2014-Aug-28 15:33N 36°46' E 014°16'1413.6
2014-Aug-28 14:33N 36°41' E 014°32'1413.9
2014-Aug-28 13:33N 36°37' E 014°49'1413.8
2014-Aug-28 12:33N 36°35' E 015°06'  
2014-Aug-23 03:33N 36°48' E 014°11'1413.5
2014-Aug-23 02:33N 36°54' E 013°56'1413.2
2014-Aug-23 01:31N 37°01' E 013°41'1313.0
2014-Aug-23 00:33N 37°06' E 013°27'21813.6
2014-Aug-22 08:33N 38°54' E 009°27'1313.2
2014-Aug-22 07:34N 39°01' E 009°12'9 8.6
2014-Aug-22 06:32N 39°05' E 009°02'0 0.0
2014-Aug-22 05:31N 39°05' E 009°02'  
Track history (hours):
 
Tides and Currents Weather Stations Pressure Air Temp Water Temp Dewpoint Dewpoint Depression Visibility Wind Speed Wind Dir Waves Ship Positions

Valle Di Andalusia

Last reported at 2014-Sep-01 05:27 UTC. Time now 2014-Sep-02 19:10 UTC.
Position N 41°07' E 002°30'.

Length 176 m; draft 9.5 m.

Type: Ship (hazmat cat A). MMSI: 247046200.

Date/timePositionNaut miles runAvg speedWind from/ knotsBaromVisibWave heightAir tempDewpointWater temp
2014-Sep-01 05:27N 41°07' E 002°30'1713.8
2014-Sep-01 04:12N 40°58' E 002°49'30811.1
2014-Aug-31 00:33N 38°45' E 008°50'1313.1
2014-Aug-30 23:33N 38°53' E 009°03'1211.4
2014-Aug-30 22:32N 39°04' E 009°04'0 0.1
2014-Aug-30 21:33N 39°04' E 009°04'0 0.1
2014-Aug-30 20:33N 39°04' E 009°04'2 1.5
2014-Aug-30 19:31N 39°05' E 009°02'0 0.0
2014-Aug-30 18:31N 39°05' E 009°02'0 0.0
2014-Aug-30 17:31N 39°05' E 009°02'0 0.0
2014-Aug-30 16:33N 39°05' E 009°02'0 0.0
2014-Aug-30 15:33N 39°05' E 009°02'0 0.0
2014-Aug-30 14:32N 39°05' E 009°02'0 0.0
2014-Aug-30 13:32N 39°05' E 009°02'0 0.0
2014-Aug-30 12:31N 39°05' E 009°02'0 0.0
2014-Aug-30 11:28N 39°05' E 009°02'0 0.0
2014-Aug-30 10:34N 39°05' E 009°02'0 0.0
2014-Aug-30 09:33N 39°05' E 009°02'0 0.0
2014-Aug-30 08:33N 39°05' E 009°02'0 0.0
2014-Aug-30 07:33N 39°05' E 009°02'0 0.0
2014-Aug-30 06:32N 39°05' E 009°02'0 0.0
2014-Aug-30 05:32N 39°05' E 009°02'0 0.0
2014-Aug-30 04:31N 39°05' E 009°02'0 0.0
2014-Aug-30 03:31N 39°05' E 009°02'0 0.0
2014-Aug-30 02:33N 39°05' E 009°02'0 0.0
2014-Aug-30 01:33N 39°05' E 009°02'0 0.0
2014-Aug-30 00:33N 39°05' E 009°02'0 0.0
2014-Aug-29 23:32N 39°05' E 009°02'0 0.0
2014-Aug-29 22:32N 39°05' E 009°02'0 0.0
2014-Aug-29 21:31N 39°05' E 009°02'0 0.0
2014-Aug-29 20:32N 39°05' E 009°02'1 1.0
2014-Aug-29 19:33N 39°05' E 009°03'0 0.0
2014-Aug-29 18:32N 39°05' E 009°03'0 0.0
2014-Aug-29 17:32N 39°05' E 009°03'0 0.0
2014-Aug-29 16:31N 39°05' E 009°03'0 0.0
2014-Aug-29 15:31N 39°05' E 009°03'0 0.0
2014-Aug-29 14:33N 39°05' E 009°03'0 0.0
2014-Aug-29 13:30N 39°05' E 009°03'0 0.2
2014-Aug-29 12:33N 39°04' E 009°03'1111.1
2014-Aug-29 11:33N 38°58' E 009°15'1413.6
2014-Aug-29 10:33N 38°50' E 009°29'20513.6
2014-Aug-28 19:32N 37°10' E 013°16'2613.3
2014-Aug-28 17:34N 36°59' E 013°46'1413.9
2014-Aug-28 16:33N 36°52' E 014°01'1413.9
2014-Aug-28 15:33N 36°46' E 014°16'1413.6
2014-Aug-28 14:33N 36°41' E 014°32'1413.9
2014-Aug-28 13:33N 36°37' E 014°49'1413.8
2014-Aug-28 12:33N 36°35' E 015°06'  
2014-Aug-23 03:33N 36°48' E 014°11'1413.5
2014-Aug-23 02:33N 36°54' E 013°56'1413.2
2014-Aug-23 01:31N 37°01' E 013°41'1313.0
2014-Aug-23 00:33N 37°06' E 013°27'21813.6
2014-Aug-22 08:33N 38°54' E 009°27'1313.2
2014-Aug-22 07:34N 39°01' E 009°12'9 8.6
2014-Aug-22 06:32N 39°05' E 009°02'0 0.0
2014-Aug-22 05:31N 39°05' E 009°02'  

Dump ship's entire track history